Time;durP1;ratioP1;P1;durP2;ratioP2;P2;SDS_P1;SDS_P2;PMS_P1;PMS_P2;Temp;Humidity;BMP_temperature;BMP_pressure;BME280_temperature;BME280_humidity;BME280_pressure;Samples;Min_cycle;Max_cycle;Signal;HPM_P1;HPM_P2
2022/12/12 00:01:17;;;;;;;28.13;10.25;;;2.80;99.90;;;;;;5013099;28;20519;-85
2022/12/12 00:03:43;;;;;;;21.17;10.40;;;2.70;99.90;;;;;;5011941;28;20208;-85
2022/12/12 00:06:09;;;;;;;23.13;10.20;;;2.70;99.90;;;;;;5013131;28;20254;-80
2022/12/12 00:08:34;;;;;;;17.02;9.70;;;2.60;99.90;;;;;;5012740;28;20592;-79
2022/12/12 00:11:00;;;;;;;18.35;9.48;;;2.50;99.90;;;;;;5012667;28;20653;-78
2022/12/12 00:13:25;;;;;;;17.88;9.63;;;2.40;99.90;;;;;;5012040;28;20271;-80
2022/12/12 00:15:51;;;;;;;17.83;9.73;;;2.70;99.90;;;;;;5012711;28;20707;-86
2022/12/12 00:18:17;;;;;;;20.85;10.00;;;2.50;99.90;;;;;;5013337;28;20161;-80
2022/12/12 00:20:42;;;;;;;22.85;10.55;;;2.40;99.90;;;;;;5012948;28;20673;-84
2022/12/12 00:23:08;;;;;;;13.30;8.45;;;2.30;99.90;;;;;;5012804;28;20227;-79
2022/12/12 00:25:34;;;;;;;19.63;10.25;;;2.30;99.90;;;;;;5012621;28;20259;-79
2022/12/12 00:28:01;;;;;;;14.80;9.68;;;2.20;99.90;;;;;;5012715;28;20222;-79
2022/12/12 00:30:26;;;;;;;17.10;10.10;;;2.40;99.90;;;;;;5012459;28;20168;-79
2022/12/12 00:32:52;;;;;;;16.20;9.88;;;2.40;99.90;;;;;;5012278;28;20161;-78
2022/12/12 00:35:18;;;;;;;15.27;9.60;;;2.30;99.90;;;;;;5012593;28;20176;-76
2022/12/12 00:37:43;;;;;;;15.18;8.57;;;2.40;99.90;;;;;;5012442;28;20173;-77
2022/12/12 00:40:09;;;;;;;16.95;9.75;;;2.40;99.90;;;;;;5012401;28;20569;-78
2022/12/12 00:42:35;;;;;;;17.90;9.52;;;2.30;99.90;;;;;;5012436;28;20696;-77
2022/12/12 00:45:01;;;;;;;21.65;10.23;;;2.30;99.90;;;;;;5011900;28;20168;-79
2022/12/12 00:47:26;;;;;;;17.13;9.63;;;2.30;99.90;;;;;;5012240;28;20215;-78
2022/12/12 00:49:52;;;;;;;15.30;9.80;;;2.20;99.90;;;;;;5011053;28;20252;-77
2022/12/12 00:52:17;;;;;;;22.73;10.52;;;2.20;99.90;;;;;;5011773;28;20216;-77
2022/12/12 00:54:43;;;;;;;21.20;10.90;;;2.20;99.90;;;;;;5011992;28;20660;-79
2022/12/12 00:57:08;;;;;;;17.75;9.80;;;2.10;99.90;;;;;;5012118;28;20168;-77
2022/12/12 00:59:34;;;;;;;13.85;9.93;;;2.00;99.90;;;;;;5012546;28;20169;-78
2022/12/12 01:02:00;;;;;;;16.40;9.38;;;2.20;99.90;;;;;;5012117;28;20193;-78
2022/12/12 01:04:25;;;;;;;16.20;9.23;;;1.90;99.90;;;;;;5012164;28;20157;-78
2022/12/12 01:06:51;;;;;;;15.93;9.90;;;1.70;99.90;;;;;;5011817;28;20205;-78
2022/12/12 01:09:16;;;;;;;21.98;11.38;;;1.60;99.90;;;;;;5012016;28;20172;-79
2022/12/12 01:11:42;;;;;;;15.50;10.15;;;1.50;99.90;;;;;;5011877;28;20669;-77
2022/12/12 01:14:08;;;;;;;21.77;9.80;;;1.70;99.90;;;;;;5012045;28;20169;-83
2022/12/12 01:16:33;;;;;;;19.27;10.20;;;1.80;99.90;;;;;;5010667;28;20617;-84
2022/12/12 01:18:59;;;;;;;15.80;9.50;;;1.90;99.90;;;;;;5012066;28;20179;-78
2022/12/12 01:21:25;;;;;;;20.65;9.70;;;2.00;99.90;;;;;;5011663;28;20189;-77
2022/12/12 01:23:50;;;;;;;22.20;10.00;;;1.90;99.90;;;;;;5013484;28;20169;-78
2022/12/12 01:26:19;;;;;;;20.90;10.02;;;1.90;99.90;;;;;;5015285;28;20161;-78
2022/12/12 01:28:45;;;;;;;19.95;8.90;;;1.60;99.90;;;;;;5015462;28;20183;-77
2022/12/12 01:31:11;;;;;;;17.30;11.05;;;1.60;99.90;;;;;;5015277;28;20196;-77
2022/12/12 01:33:37;;;;;;;18.50;9.40;;;1.70;99.90;;;;;;5015279;28;20187;-78
2022/12/12 01:36:03;;;;;;;18.40;10.30;;;1.80;99.90;;;;;;5015330;28;20525;-77
2022/12/12 01:38:28;;;;;;;14.35;9.27;;;1.80;99.90;;;;;;5004283;28;20255;-77
2022/12/12 01:40:54;;;;;;;18.80;10.57;;;1.70;99.90;;;;;;4995918;28;20616;-82
2022/12/12 01:43:22;;;;;;;19.98;10.23;;;1.60;99.90;;;;;;4995883;28;20169;-77
2022/12/12 01:45:57;;;;;;;16.42;10.55;;;1.60;99.90;;;;;;4995684;28;20170;-78
2022/12/12 01:48:46;;;;;;;18.80;11.20;;;1.70;99.90;;;;;;4995561;28;20211;-77
2022/12/12 01:51:15;;;;;;;17.75;9.52;;;1.70;99.90;;;;;;4997691;28;20700;-77
2022/12/12 01:53:41;;;;;;;22.33;10.30;;;1.60;99.90;;;;;;5007602;28;20213;-77
2022/12/12 01:56:11;;;;;;;19.35;9.43;;;1.70;99.90;;;;;;5015575;28;20180;-77
2022/12/12 01:58:43;;;;;;;17.92;10.80;;;1.50;99.90;;;;;;4994104;28;20173;-77
2022/12/12 02:01:09;;;;;;;20.02;10.93;;;1.60;99.90;;;;;;4995452;28;20960;-84
2022/12/12 02:03:36;;;;;;;21.08;11.20;;;1.80;99.90;;;;;;4995221;28;20538;-77
2022/12/12 02:06:04;;;;;;;16.20;9.45;;;1.90;99.90;;;;;;4995069;28;20182;-80
2022/12/12 02:08:30;;;;;;;21.77;10.48;;;1.70;99.90;;;;;;4993646;28;20213;-77
2022/12/12 02:10:56;;;;;;;16.40;11.43;;;1.70;99.90;;;;;;4995021;28;20189;-77
2022/12/12 02:13:26;;;;;;;15.65;9.57;;;1.70;99.90;;;;;;4994767;28;20161;-77
2022/12/12 02:16:26;;;;;;;21.40;10.23;;;1.50;99.90;;;;;;4998005;28;20165;-78
2022/12/12 02:19:18;;;;;;;21.88;9.80;;;1.50;99.90;;;;;;4994977;28;20196;-77
2022/12/12 02:21:50;;;;;;;23.90;10.05;;;1.60;99.90;;;;;;4984608;28;20239;-78
2022/12/12 02:25:03;;;;;;;17.67;10.47;;;1.60;99.90;;;;;;4995198;28;20196;-78
2022/12/12 02:27:47;;;;;;;14.17;9.27;;;1.60;99.90;;;;;;4983227;28;20268;-77
2022/12/12 02:30:23;;;;;;;22.70;10.27;;;1.50;99.90;;;;;;4994662;28;20202;-77
2022/12/12 02:33:27;;;;;;;22.30;10.38;;;1.50;99.90;;;;;;4993417;28;20559;-77
2022/12/12 02:36:11;;;;;;;17.13;10.02;;;1.60;99.90;;;;;;4994014;28;20566;-77
2022/12/12 02:38:45;;;;;;;17.25;9.18;;;1.60;99.90;;;;;;4994728;28;20181;-78
2022/12/12 02:41:16;;;;;;;19.92;9.73;;;1.60;99.90;;;;;;4993321;28;20220;-78
2022/12/12 02:44:12;;;;;;;15.05;9.38;;;1.60;99.90;;;;;;4994569;28;20249;-77
2022/12/12 02:47:06;;;;;;;13.52;9.15;;;1.40;99.90;;;;;;4994482;28;20300;-77
2022/12/12 02:49:46;;;;;;;21.53;10.17;;;1.30;99.90;;;;;;4994532;28;20173;-77
2022/12/12 02:52:12;;;;;;;17.70;9.47;;;1.50;99.90;;;;;;4994291;28;20566;-77
2022/12/12 02:54:38;;;;;;;18.43;10.20;;;1.40;99.90;;;;;;4994269;28;20161;-78
2022/12/12 02:57:16;;;;;;;19.10;9.77;;;1.40;99.90;;;;;;4994333;28;20228;-77
2022/12/12 02:59:46;;;;;;;25.58;11.38;;;1.30;99.90;;;;;;4994235;28;20228;-78
2022/12/12 03:02:36;;;;;;;23.23;10.85;;;1.30;99.90;;;;;;4993222;28;20682;-77
2022/12/12 03:08:44;;;;;;;15.17;9.27;;;1.10;99.90;;;;;;5006038;28;20251;-77
2022/12/12 03:11:14;;;;;;;16.88;9.77;;;1.10;99.90;;;;;;5006405;28;20201;-77
2022/12/12 03:14:07;;;;;;;17.47;10.43;;;1.30;99.90;;;;;;5003686;28;20169;-77
2022/12/12 03:16:35;;;;;;;17.90;9.52;;;1.00;99.90;;;;;;5006133;28;20196;-77
2022/12/12 03:19:29;;;;;;;17.67;10.38;;;0.90;99.90;;;;;;5001033;28;20256;-77
2022/12/12 03:22:32;;;;;;;22.00;10.97;;;0.80;99.90;;;;;;5008204;28;20281;-78
2022/12/12 03:25:26;;;;;;;25.50;11.43;;;0.70;99.90;;;;;;5005028;28;20196;-77
2022/12/12 03:28:34;;;;;;;24.60;10.47;;;0.70;99.90;;;;;;5004373;28;20220;-77
2022/12/12 03:31:06;;;;;;;21.53;10.90;;;0.80;99.90;;;;;;5003696;28;20284;-78
2022/12/12 03:33:49;;;;;;;22.17;11.60;;;0.70;99.90;;;;;;4997909;28;20209;-77
2022/12/12 03:36:40;;;;;;;18.92;10.85;;;0.80;99.90;;;;;;5001521;28;20233;-77
2022/12/12 03:39:12;;;;;;;23.43;10.13;;;0.90;99.90;;;;;;4999616;28;20170;-77
2022/12/12 03:41:47;;;;;;;28.50;11.30;;;0.90;99.90;;;;;;5003854;28;20192;-79
2022/12/12 03:44:25;;;;;;;19.33;9.17;;;0.80;99.90;;;;;;5002939;28;20236;-78
2022/12/12 03:47:08;;;;;;;26.00;11.57;;;0.90;99.90;;;;;;5000284;28;20204;-78
2022/12/12 03:49:49;;;;;;;17.47;10.23;;;1.00;99.90;;;;;;5006235;28;20173;-78
2022/12/12 03:52:25;;;;;;;25.88;12.10;;;0.90;99.90;;;;;;5004335;28;20262;-80
2022/12/12 03:55:07;;;;;;;23.83;10.90;;;1.00;99.90;;;;;;4999139;28;20173;-77
2022/12/12 03:57:40;;;;;;;29.07;11.37;;;0.90;99.90;;;;;;5005588;28;20169;-78
2022/12/12 04:00:08;;;;;;;24.23;11.47;;;0.70;99.90;;;;;;5002733;28;20571;-78
2022/12/12 04:02:50;;;;;;;23.30;11.75;;;0.80;99.90;;;;;;5001389;28;20187;-79
2022/12/12 04:05:38;;;;;;;23.42;11.38;;;0.60;99.90;;;;;;5003213;28;20653;-77
2022/12/12 04:08:11;;;;;;;23.20;11.77;;;0.60;99.90;;;;;;5005128;28;20287;-76
2022/12/12 04:13:53;;;;;;;22.20;11.30;;;0.80;99.90;;;;;;5004327;28;20259;-77
2022/12/12 04:16:27;;;;;;;21.92;10.77;;;0.70;99.90;;;;;;5009265;28;20181;-77
2022/12/12 04:19:03;;;;;;;26.70;12.33;;;0.60;99.90;;;;;;5006108;28;20169;-78
2022/12/12 04:25:04;;;;;;;24.17;11.73;;;0.80;99.90;;;;;;5011892;28;20582;-78
2022/12/12 04:27:40;;;;;;;24.40;11.27;;;0.70;99.90;;;;;;5001998;28;20239;-77
2022/12/12 04:30:13;;;;;;;22.50;12.00;;;0.70;99.90;;;;;;5004758;28;20160;-76
2022/12/12 04:32:54;;;;;;;19.03;12.13;;;0.70;99.90;;;;;;5003282;28;20220;-78
2022/12/12 04:35:40;;;;;;;24.57;12.40;;;0.70;99.90;;;;;;4984793;28;20208;-78
2022/12/12 04:38:10;;;;;;;28.50;11.97;;;0.70;99.90;;;;;;5005025;28;20166;-77
2022/12/12 04:40:39;;;;;;;24.70;11.40;;;0.60;99.90;;;;;;5005889;28;20594;-79
2022/12/12 04:43:09;;;;;;;25.60;13.23;;;0.70;99.90;;;;;;4984008;28;20177;-78
2022/12/12 04:45:41;;;;;;;23.30;12.63;;;0.70;99.90;;;;;;5000369;28;20528;-77
2022/12/12 04:48:11;;;;;;;20.40;10.37;;;0.60;99.90;;;;;;5003582;28;20211;-77
2022/12/12 04:50:43;;;;;;;24.60;12.00;;;0.70;99.90;;;;;;5000900;28;20240;-77
2022/12/12 04:53:13;;;;;;;27.90;11.52;;;0.50;99.90;;;;;;5002488;28;20248;-78
2022/12/12 04:55:43;;;;;;;25.73;11.30;;;0.50;99.90;;;;;;5003823;28;20166;-79
2022/12/12 04:58:10;;;;;;;20.13;11.80;;;0.60;99.90;;;;;;5002772;28;20165;-78
2022/12/12 05:00:46;;;;;;;19.20;11.57;;;0.70;99.90;;;;;;5003467;28;20169;-78
2022/12/12 05:03:20;;;;;;;22.20;11.00;;;0.60;99.90;;;;;;5009871;28;20176;-78
2022/12/12 05:06:13;;;;;;;19.97;11.03;;;0.50;99.90;;;;;;5002284;28;20638;-78
2022/12/12 05:08:48;;;;;;;25.67;11.80;;;0.50;99.90;;;;;;5003476;28;20278;-79
2022/12/12 05:11:14;;;;;;;13.87;9.40;;;0.40;99.90;;;;;;5006371;28;20193;-78
2022/12/12 05:13:41;;;;;;;21.13;11.27;;;0.50;99.90;;;;;;5007737;28;20231;-79
2022/12/12 05:16:17;;;;;;;23.03;11.17;;;0.50;99.90;;;;;;5001907;28;20237;-78
2022/12/12 05:18:43;;;;;;;21.03;11.23;;;0.40;99.90;;;;;;5002603;28;20687;-80
2022/12/12 05:21:09;;;;;;;23.33;10.50;;;0.40;99.90;;;;;;5004821;28;20193;-78
2022/12/12 05:23:35;;;;;;;22.60;11.30;;;0.60;99.90;;;;;;5003464;28;20173;-78
2022/12/12 05:26:06;;;;;;;26.97;11.90;;;0.70;99.90;;;;;;5004170;28;20188;-78
2022/12/12 05:28:32;;;;;;;24.03;10.97;;;0.60;99.90;;;;;;5004690;28;20255;-79
2022/12/12 05:30:57;;;;;;;25.47;11.60;;;0.60;99.90;;;;;;5006520;28;20189;-78
2022/12/12 05:33:23;;;;;;;20.63;10.20;;;0.50;99.90;;;;;;5005866;28;20170;-80
2022/12/12 05:35:49;;;;;;;19.23;10.37;;;0.40;99.90;;;;;;5004561;28;20224;-78
2022/12/12 05:38:17;;;;;;;19.67;11.03;;;0.40;99.90;;;;;;5007188;28;20170;-78
2022/12/12 05:40:42;;;;;;;20.03;10.30;;;0.40;99.90;;;;;;5006763;28;20185;-78
2022/12/12 05:43:08;;;;;;;20.60;10.70;;;0.60;99.90;;;;;;5005748;28;20173;-77
2022/12/12 05:45:34;;;;;;;26.40;11.43;;;0.60;99.90;;;;;;5006837;28;20204;-77
2022/12/12 05:48:00;;;;;;;20.40;10.90;;;0.40;99.90;;;;;;5002734;28;20576;-78
2022/12/12 05:50:25;;;;;;;19.37;10.27;;;0.30;99.90;;;;;;5001648;28;20197;-78
2022/12/12 05:52:52;;;;;;;25.03;11.83;;;0.30;99.90;;;;;;5002549;28;20345;-78
2022/12/12 05:55:17;;;;;;;19.77;10.37;;;0.60;99.90;;;;;;5005243;28;20205;-78
2022/12/12 05:57:45;;;;;;;20.90;11.00;;;0.60;99.90;;;;;;5002723;28;20181;-78
2022/12/12 06:00:11;;;;;;;20.57;10.73;;;0.70;99.90;;;;;;5001651;28;20180;-78
2022/12/12 06:02:37;;;;;;;19.00;10.40;;;0.50;99.90;;;;;;4999657;28;20220;-78
2022/12/12 06:05:03;;;;;;;16.73;10.60;;;0.50;99.90;;;;;;5000393;28;20200;-78
2022/12/12 06:07:30;;;;;;;26.23;11.17;;;0.40;99.90;;;;;;5002743;28;20209;-78
2022/12/12 06:09:58;;;;;;;24.53;11.20;;;0.40;99.90;;;;;;5002078;28;20180;-78
2022/12/12 06:12:25;;;;;;;25.63;11.50;;;0.30;99.90;;;;;;5002828;28;20543;-78
2022/12/12 06:14:51;;;;;;;23.13;11.77;;;0.40;99.90;;;;;;5004392;28;20174;-78
2022/12/12 06:17:20;;;;;;;25.10;12.65;;;0.50;99.90;;;;;;5006645;28;20166;-78
2022/12/12 06:19:45;;;;;;;23.37;10.70;;;0.60;99.90;;;;;;5007208;28;20180;-82
2022/12/12 06:22:11;;;;;;;23.83;11.10;;;0.60;99.90;;;;;;4998131;28;20243;-79
2022/12/12 06:24:37;;;;;;;23.97;10.23;;;0.50;99.90;;;;;;4999101;28;20179;-78
2022/12/12 06:27:04;;;;;;;22.63;10.43;;;0.30;99.90;;;;;;5007024;28;20200;-78
2022/12/12 06:29:29;;;;;;;29.27;11.43;;;0.20;99.90;;;;;;5005345;28;20652;-77
2022/12/12 06:31:59;;;;;;;25.83;11.17;;;0.10;99.90;;;;;;5005007;28;20205;-77
2022/12/12 06:34:26;;;;;;;22.23;10.37;;;0.00;99.90;;;;;;5009105;28;20201;-77
2022/12/12 06:36:52;;;;;;;26.57;11.30;;;-0.10;99.90;;;;;;5015175;28;20169;-79
2022/12/12 06:39:19;;;;;;;25.30;10.50;;;-0.20;99.90;;;;;;5007144;28;20191;-78
2022/12/12 06:41:44;;;;;;;20.50;10.63;;;0.00;99.90;;;;;;5000250;28;20265;-78
2022/12/12 06:44:13;;;;;;;24.77;10.82;;;0.00;99.90;;;;;;5001404;28;20255;-77
2022/12/12 06:46:42;;;;;;;20.20;11.30;;;0.10;99.90;;;;;;5008368;28;20655;-78
2022/12/12 06:49:09;;;;;;;23.70;11.13;;;0.10;99.90;;;;;;5019371;28;20204;-78
2022/12/12 06:51:39;;;;;;;19.47;10.97;;;0.10;99.90;;;;;;5018080;28;20193;-79
2022/12/12 06:54:05;;;;;;;17.83;10.40;;;0.30;99.90;;;;;;5018981;28;20560;-77
2022/12/12 06:56:31;;;;;;;19.73;10.57;;;0.50;99.90;;;;;;5018962;28;20184;-77
2022/12/12 06:58:58;;;;;;;20.60;10.87;;;0.30;99.90;;;;;;5018211;28;20169;-77
2022/12/12 07:01:24;;;;;;;25.23;10.60;;;0.30;99.90;;;;;;5019045;28;20188;-77
2022/12/12 07:03:52;;;;;;;28.20;11.03;;;0.40;99.90;;;;;;5021335;28;20162;-78
2022/12/12 07:06:21;;;;;;;21.33;11.57;;;0.40;99.90;;;;;;5021917;28;20168;-77
2022/12/12 07:08:49;;;;;;;39.23;12.67;;;0.10;99.90;;;;;;5020939;28;20181;-77
2022/12/12 07:11:18;;;;;;;15.70;9.70;;;0.10;99.90;;;;;;5018104;28;20645;-80
2022/12/12 07:13:44;;;;;;;26.00;11.37;;;0.10;99.90;;;;;;5020563;28;20175;-77
2022/12/12 07:16:10;;;;;;;25.37;11.67;;;0.30;99.90;;;;;;5018606;28;20161;-78
2022/12/12 07:18:37;;;;;;;27.33;10.87;;;0.20;99.90;;;;;;5022489;28;20184;-78
2022/12/12 07:21:09;;;;;;;25.97;10.87;;;0.20;99.90;;;;;;5021264;28;20195;-78
2022/12/12 07:23:37;;;;;;;22.80;10.30;;;0.10;99.90;;;;;;5023162;28;20226;-78
2022/12/12 07:26:05;;;;;;;21.93;10.90;;;0.20;99.90;;;;;;5023490;28;20176;-79
2022/12/12 07:28:31;;;;;;;24.50;11.10;;;0.10;99.90;;;;;;5023040;28;20259;-78
2022/12/12 07:30:57;;;;;;;32.10;12.73;;;0.10;99.90;;;;;;5018602;28;20179;-78
2022/12/12 07:33:23;;;;;;;29.67;12.60;;;0.40;99.90;;;;;;5021729;28;20263;-79
2022/12/12 07:35:49;;;;;;;30.97;11.83;;;0.30;99.90;;;;;;5026364;28;20175;-78
2022/12/12 07:38:16;;;;;;;25.10;11.47;;;0.20;99.90;;;;;;5021123;28;20172;-78
2022/12/12 07:40:41;;;;;;;25.57;10.60;;;0.10;99.90;;;;;;5017594;28;20283;-81
2022/12/12 07:43:07;;;;;;;25.00;11.40;;;-0.10;99.90;;;;;;5005009;28;20173;-79
2022/12/12 07:45:33;;;;;;;22.00;10.10;;;-0.10;99.90;;;;;;5014018;28;20241;-84
2022/12/12 07:47:59;;;;;;;19.80;11.10;;;0.10;99.90;;;;;;5004695;28;20735;-78
2022/12/12 07:50:25;;;;;;;30.43;11.50;;;0.20;99.90;;;;;;5003010;28;20169;-78
2022/12/12 07:52:51;;;;;;;23.63;10.63;;;0.30;99.90;;;;;;5004720;28;20179;-77
2022/12/12 07:55:17;;;;;;;26.60;12.10;;;0.20;99.90;;;;;;5002760;28;20170;-78
2022/12/12 07:57:44;;;;;;;36.63;11.70;;;0.30;99.90;;;;;;5002621;28;20184;-78
2022/12/12 08:00:13;;;;;;;27.47;11.83;;;0.10;99.90;;;;;;5007433;28;20177;-78
2022/12/12 08:02:39;;;;;;;27.30;11.43;;;0.10;99.90;;;;;;5014764;28;20547;-78
2022/12/12 08:05:05;;;;;;;31.40;12.53;;;0.10;99.90;;;;;;5012133;28;20168;-78
2022/12/12 08:07:31;;;;;;;24.27;11.80;;;-0.10;99.90;;;;;;5025861;28;20215;-80
2022/12/12 08:09:57;;;;;;;27.77;12.40;;;0.00;99.90;;;;;;5023387;28;20169;-78
2022/12/12 08:12:23;;;;;;;30.07;12.27;;;0.10;99.90;;;;;;4995930;28;20591;-84
2022/12/12 08:14:49;;;;;;;21.50;10.37;;;0.20;99.90;;;;;;5003843;28;20236;-77
2022/12/12 08:17:14;;;;;;;24.53;12.93;;;0.20;99.90;;;;;;5005108;28;20177;-79
2022/12/12 08:19:40;;;;;;;29.93;12.63;;;0.30;99.90;;;;;;5009140;28;20164;-78
2022/12/12 08:22:07;;;;;;;17.57;10.23;;;0.20;99.90;;;;;;5023398;28;20712;-79
2022/12/12 08:24:33;;;;;;;28.13;11.97;;;0.40;99.90;;;;;;5020119;28;20226;-77
2022/12/12 08:27:01;;;;;;;23.97;11.70;;;0.50;99.90;;;;;;5018491;28;20192;-78
2022/12/12 08:29:28;;;;;;;22.43;11.57;;;0.50;99.90;;;;;;5012871;28;20328;-80
2022/12/12 08:31:55;;;;;;;26.03;12.73;;;0.50;99.90;;;;;;4999955;28;20201;-78
2022/12/12 08:34:21;;;;;;;23.07;11.13;;;0.50;99.90;;;;;;5002636;28;20197;-78
2022/12/12 08:36:48;;;;;;;29.23;11.97;;;0.60;99.90;;;;;;5010311;28;20233;-78
2022/12/12 08:39:18;;;;;;;22.90;10.70;;;0.70;99.90;;;;;;4987844;28;20177;-78
2022/12/12 08:41:48;;;;;;;29.00;11.47;;;0.70;99.90;;;;;;5006223;28;20764;-77
2022/12/12 08:44:15;;;;;;;20.57;10.80;;;0.80;99.90;;;;;;5008096;28;20177;-77
2022/12/12 08:46:44;;;;;;;26.73;12.07;;;0.80;99.90;;;;;;5011011;28;20260;-78
2022/12/12 08:49:10;;;;;;;31.60;12.13;;;0.80;99.90;;;;;;5005996;28;20185;-76
2022/12/12 08:51:39;;;;;;;30.20;11.33;;;0.60;99.90;;;;;;5008525;28;20192;-80
2022/12/12 08:54:05;;;;;;;24.47;11.83;;;0.70;99.90;;;;;;5007236;28;20177;-78
2022/12/12 08:56:34;;;;;;;24.60;12.23;;;0.90;99.90;;;;;;5003640;28;20176;-80
2022/12/12 08:59:01;;;;;;;28.73;13.33;;;1.00;99.90;;;;;;5011231;28;20157;-77
2022/12/12 09:01:28;;;;;;;25.87;12.20;;;1.20;99.90;;;;;;5016253;28;20204;-77
2022/12/12 09:03:56;;;;;;;22.02;11.50;;;1.20;99.90;;;;;;5016351;28;20161;-77
2022/12/12 09:06:23;;;;;;;24.40;11.73;;;1.10;99.90;;;;;;5009451;28;20176;-77
2022/12/12 09:08:54;;;;;;;22.85;11.25;;;1.20;99.90;;;;;;5009961;28;20209;-77
2022/12/12 09:11:19;;;;;;;25.00;10.63;;;1.30;99.90;;;;;;5000879;28;20185;-78
2022/12/12 09:13:46;;;;;;;30.38;13.20;;;1.40;99.90;;;;;;5002682;28;20547;-78
2022/12/12 09:16:12;;;;;;;31.77;12.35;;;1.60;99.90;;;;;;5009484;28;20165;-77
2022/12/12 09:18:39;;;;;;;25.90;11.68;;;1.50;99.90;;;;;;5002794;28;20216;-77
2022/12/12 09:21:05;;;;;;;32.35;10.80;;;1.30;99.90;;;;;;4996874;28;20181;-77
2022/12/12 09:23:32;;;;;;;25.92;12.80;;;1.40;99.90;;;;;;5001498;28;20237;-78
2022/12/12 09:26:02;;;;;;;20.33;10.75;;;1.40;99.90;;;;;;5005814;28;20180;-77
2022/12/12 09:28:28;;;;;;;27.30;12.00;;;1.60;99.90;;;;;;5001296;28;20217;-76
2022/12/12 09:30:54;;;;;;;35.97;12.80;;;1.60;99.90;;;;;;5005908;28;20192;-78
2022/12/12 09:33:20;;;;;;;33.25;13.63;;;1.80;99.90;;;;;;5003610;28;20189;-76
2022/12/12 09:35:54;;;;;;;25.70;11.98;;;1.70;99.90;;;;;;5003444;28;20181;-76
2022/12/12 09:38:20;;;;;;;24.58;11.73;;;1.70;99.90;;;;;;5003325;28;20214;-76
2022/12/12 09:41:03;;;;;;;33.53;12.60;;;1.50;99.90;;;;;;5003434;28;20248;-80
2022/12/12 09:43:40;;;;;;;26.73;10.13;;;1.80;99.90;;;;;;5007766;28;20169;-76
2022/12/12 09:46:27;;;;;;;27.00;11.90;;;1.90;99.90;;;;;;5004343;28;20161;-76
2022/12/12 09:49:01;;;;;;;34.22;11.57;;;1.90;99.90;;;;;;5009052;28;20270;-77
2022/12/12 09:51:27;;;;;;;29.95;11.45;;;2.00;99.90;;;;;;5018300;28;20609;-76
2022/12/12 09:53:53;;;;;;;26.45;10.50;;;2.10;99.90;;;;;;5022313;28;20169;-76
2022/12/12 09:56:44;;;;;;;21.67;11.05;;;2.20;99.90;;;;;;5021986;28;20255;-75
2022/12/12 09:59:26;;;;;;;18.92;10.07;;;1.90;99.90;;;;;;5019861;28;20653;-75
2022/12/12 10:02:22;;;;;;;32.65;9.50;;;1.80;99.90;;;;;;5021366;28;20199;-77
2022/12/12 10:05:01;;;;;;;22.80;9.98;;;1.80;99.90;;;;;;5014793;28;20653;-75
2022/12/12 10:07:51;;;;;;;34.67;8.63;;;1.90;99.90;;;;;;5014171;28;20218;-76
2022/12/12 10:10:24;;;;;;;24.17;10.25;;;1.80;99.90;;;;;;5021196;28;20250;-77
2022/12/12 10:12:52;;;;;;;28.77;9.68;;;1.90;99.90;;;;;;5023572;28;20176;-76
2022/12/12 10:15:53;;;;;;;23.95;11.25;;;2.00;99.90;;;;;;5026766;28;20165;-76
2022/12/12 10:18:42;;;;;;;26.77;9.38;;;2.00;99.90;;;;;;5015493;28;20184;-76
2022/12/12 10:21:26;;;;;;;24.58;8.93;;;2.10;99.90;;;;;;5016537;28;20205;-78
2022/12/12 10:24:30;;;;;;;18.40;10.05;;;2.20;99.90;;;;;;5015716;28;20212;-76
2022/12/12 10:26:57;;;;;;;24.55;9.55;;;2.30;99.90;;;;;;4993058;28;20204;-76
2022/12/12 10:29:25;;;;;;;14.45;7.75;;;2.40;99.90;;;;;;5011914;28;20610;-76
2022/12/12 10:31:55;;;;;;;22.02;10.00;;;2.30;99.90;;;;;;5018874;28;20235;-77
2022/12/12 10:34:27;;;;;;;26.63;9.25;;;2.20;99.90;;;;;;5017802;28;20196;-82
2022/12/12 10:37:08;;;;;;;20.25;10.40;;;2.20;99.90;;;;;;5014303;28;20576;-79
2022/12/12 10:40:05;;;;;;;32.50;9.48;;;2.20;99.90;;;;;;5014824;28;20168;-80
2022/12/12 10:42:51;;;;;;;22.35;9.23;;;2.40;99.90;;;;;;5007891;28;20219;-81
2022/12/12 10:45:33;;;;;;;12.48;8.10;;;2.30;99.90;;;;;;5001735;28;20204;-81
2022/12/12 10:48:00;;;;;;;19.05;8.38;;;2.40;99.90;;;;;;4995218;28;20299;-82
2022/12/12 10:50:54;;;;;;;21.05;9.68;;;2.20;99.90;;;;;;5001717;28;20187;-80
2022/12/12 10:53:22;;;;;;;17.65;9.23;;;2.30;99.90;;;;;;4996383;28;20228;-80
2022/12/12 10:56:10;;;;;;;13.60;7.95;;;2.40;99.90;;;;;;4997645;28;20485;-78
2022/12/12 10:58:39;;;;;;;15.00;8.57;;;2.40;99.90;;;;;;4996834;28;20223;-79
2022/12/12 11:01:18;;;;;;;17.25;8.52;;;2.40;99.90;;;;;;4995330;28;20192;-80
2022/12/12 11:03:48;;;;;;;23.13;8.40;;;2.50;99.90;;;;;;4996501;28;20534;-80
2022/12/12 11:06:25;;;;;;;14.32;7.78;;;2.60;99.90;;;;;;4995308;28;20260;-79
2022/12/12 11:08:57;;;;;;;16.88;9.23;;;2.60;99.90;;;;;;4994185;28;20263;-78
2022/12/12 11:11:26;;;;;;;20.25;7.95;;;2.70;99.90;;;;;;4994777;28;20193;-80
2022/12/12 11:14:00;;;;;;;14.00;7.75;;;2.90;99.90;;;;;;5011941;28;20180;-80
2022/12/12 11:16:38;;;;;;;15.13;8.38;;;2.60;99.90;;;;;;5016449;28;20163;-82
2022/12/12 11:19:15;;;;;;;15.90;9.25;;;2.70;99.90;;;;;;5017798;28;20173;-78
2022/12/12 11:21:41;;;;;;;24.05;9.63;;;2.50;99.90;;;;;;5024677;28;20179;-78
2022/12/12 11:24:13;;;;;;;18.67;9.27;;;2.60;99.90;;;;;;5013585;28;20303;-78
2022/12/12 11:26:47;;;;;;;18.42;8.52;;;2.50;99.90;;;;;;4994465;28;20260;-79
2022/12/12 11:29:25;;;;;;;14.10;8.35;;;2.60;99.90;;;;;;4994033;28;20607;-77
2022/12/12 11:31:50;;;;;;;20.40;8.77;;;2.80;99.90;;;;;;4993579;28;20260;-79
2022/12/12 11:34:16;;;;;;;19.30;8.93;;;3.00;99.90;;;;;;4994998;28;20184;-79
2022/12/12 11:36:42;;;;;;;17.15;9.00;;;3.00;99.90;;;;;;5007417;28;20271;-80
2022/12/12 11:39:32;;;;;;;20.00;8.50;;;3.10;99.90;;;;;;5015436;28;20169;-82
2022/12/12 11:42:15;;;;;;;21.90;8.75;;;3.30;99.90;;;;;;5013866;28;20223;-79
2022/12/12 11:44:43;;;;;;;29.17;8.40;;;3.30;99.90;;;;;;5013291;28;20199;-80
2022/12/12 11:47:20;;;;;;;27.08;8.85;;;3.30;99.90;;;;;;5013354;28;20275;-78
2022/12/12 11:50:21;;;;;;;17.95;7.85;;;3.20;99.90;;;;;;5012807;28;20259;-77
2022/12/12 11:52:48;;;;;;;12.88;7.20;;;3.40;99.90;;;;;;5004139;28;20568;-79
2022/12/12 11:55:17;;;;;;;13.77;7.78;;;3.50;99.90;;;;;;4994396;28;20614;-78
2022/12/12 11:57:57;;;;;;;16.80;7.97;;;3.50;99.90;;;;;;4992831;28;20192;-80
2022/12/12 12:00:25;;;;;;;19.23;7.30;;;3.50;99.90;;;;;;4992174;28;20173;-77
2022/12/12 12:03:21;;;;;;;10.52;7.05;;;3.50;99.90;;;;;;4992754;28;20630;-79
2022/12/12 12:06:05;;;;;;;10.23;7.28;;;3.60;99.90;;;;;;4993551;28;20165;-80
2022/12/12 12:08:56;;;;;;;12.38;6.93;;;3.50;99.90;;;;;;4991035;28;20238;-78
2022/12/12 12:11:31;;;;;;;21.50;8.07;;;3.60;99.90;;;;;;4991953;28;20197;-78
2022/12/12 12:14:34;;;;;;;13.52;7.38;;;3.60;99.90;;;;;;4993119;28;20165;-78
2022/12/12 12:17:51;;;;;;;11.23;6.85;;;3.60;99.90;;;;;;4991898;28;20207;-78
2022/12/12 12:20:50;;;;;;;18.20;6.82;;;3.70;99.90;;;;;;4981972;28;20313;-82
2022/12/12 12:23:44;;;;;;;14.30;7.95;;;3.70;99.90;;;;;;4993463;28;20169;-80
2022/12/12 12:26:17;;;;;;;17.13;7.55;;;3.80;99.90;;;;;;4993937;28;20197;-79
2022/12/12 12:29:02;;;;;;;27.23;7.68;;;3.60;99.90;;;;;;4993854;28;20236;-80
2022/12/12 12:31:58;;;;;;;11.65;6.63;;;3.70;99.90;;;;;;4997806;28;20204;-78
2022/12/12 12:34:53;;;;;;;18.27;8.02;;;4.00;99.90;;;;;;5000979;28;20197;-80
2022/12/12 12:37:44;;;;;;;18.30;8.00;;;4.00;99.90;;;;;;4986047;28;20601;-80
2022/12/12 12:40:51;;;;;;;15.52;6.22;;;4.00;99.90;;;;;;4986976;28;20220;-81
2022/12/12 12:43:50;;;;;;;16.65;6.50;;;3.70;99.90;;;;;;4996627;28;20165;-78
2022/12/12 12:46:22;;;;;;;11.38;6.05;;;3.80;99.90;;;;;;4999726;28;20569;-79
2022/12/12 12:48:59;;;;;;;13.90;6.35;;;3.90;99.90;;;;;;5000077;28;20908;-78
2022/12/12 12:51:35;;;;;;;38.22;7.55;;;4.20;99.90;;;;;;4997758;28;20199;-82
2022/12/12 12:54:06;;;;;;;13.07;5.93;;;4.20;99.90;;;;;;4995370;28;20177;-81
2022/12/12 12:56:42;;;;;;;9.85;6.60;;;4.20;99.90;;;;;;4994750;28;20169;-80
2022/12/12 12:59:13;;;;;;;11.45;6.13;;;3.90;99.90;;;;;;4994361;28;20227;-84
2022/12/12 13:01:49;;;;;;;9.77;6.40;;;4.00;99.90;;;;;;4998150;28;20233;-78
2022/12/12 13:04:30;;;;;;;9.23;6.07;;;4.10;99.90;;;;;;5001240;28;20176;-81
2022/12/12 13:07:10;;;;;;;10.75;6.25;;;4.10;99.90;;;;;;5001099;28;20232;-81
2022/12/12 13:10:18;;;;;;;13.25;6.90;;;3.90;99.90;;;;;;4999378;28;20173;-82
2022/12/12 13:13:27;;;;;;;10.98;6.90;;;4.00;99.90;;;;;;4980652;28;20200;-78
2022/12/12 13:16:30;;;;;;;12.23;6.53;;;4.30;99.90;;;;;;4997807;28;20166;-81
2022/12/12 13:19:31;;;;;;;8.82;5.90;;;4.30;99.90;;;;;;4972257;28;20196;-80
2022/12/12 13:22:06;;;;;;;17.73;7.00;;;4.40;99.90;;;;;;4993822;28;20966;-83